Rathdrum, Idaho
Current Conditions -  °F | °C
As of 5:15 PM on Saturday 25 Oct 2014 (Local Time) from KCOE Reporting Station
Few Clouds Few Clouds  
Wind Chill: 55°   Ceiling: Unl
Heat Index: 55°   Visibility: 10mi
Dew Point: 45°   Wind: 9mph
Humidity: 67%   Direction: 30°NNE
Pressure: 29.53"   Gusts: NA
Location:  47.81°N, 116.9°W
Report Text: KCOE 260015Z AUTO 03008KT 10SM FEW110 13/07 A2953 RMK AO1
Loading
Personal Weather Stations






























Interactive Weather Map
Tropical Storm Tracking
New forecast layout! Learn more

10-Day Weather Forecast

Advertisements
Track Severe Weather on mobile